sensor_id;sensor_type;location;lat;lon;timestamp;temperature;humidity
26579;DHT22;14227;47.674;19.320;2022-08-21T04:21:24;23.90;55.90
26579;DHT22;14227;47.674;19.320;2022-08-21T04:23:58;23.80;56.10
26579;DHT22;14227;47.674;19.320;2022-08-21T04:29:02;23.80;56.20
26579;DHT22;14227;47.674;19.320;2022-08-21T04:47:00;23.80;56.20
26579;DHT22;14227;47.674;19.320;2022-08-21T04:49:41;23.90;56.20
26579;DHT22;14227;47.674;19.320;2022-08-21T05:31:10;24.00;56.30
26579;DHT22;14227;47.674;19.320;2022-08-21T05:41:25;24.00;56.60
26579;DHT22;14227;47.674;19.320;2022-08-21T05:47:40;24.00;56.30
26579;DHT22;14227;47.674;19.320;2022-08-21T05:50:18;24.00;56.40
26579;DHT22;14227;47.674;19.320;2022-08-21T06:06:10;24.00;57.10
26579;DHT22;14227;47.674;19.320;2022-08-21T06:08:38;24.00;56.90
26579;DHT22;14227;47.674;19.320;2022-08-21T06:35:58;24.00;57.00
26579;DHT22;14227;47.674;19.320;2022-08-21T06:38:27;24.00;56.90
26579;DHT22;14227;47.674;19.320;2022-08-21T06:40:59;24.00;57.00
26579;DHT22;14227;47.674;19.320;2022-08-21T06:43:25;24.10;57.10
26579;DHT22;14227;47.674;19.320;2022-08-21T06:45:51;24.00;56.90
26579;DHT22;14227;47.674;19.320;2022-08-21T06:48:16;24.10;57.20
26579;DHT22;14227;47.674;19.320;2022-08-21T06:50:42;24.00;57.10
26579;DHT22;14227;47.674;19.320;2022-08-21T06:53:12;24.10;57.00
26579;DHT22;14227;47.674;19.320;2022-08-21T06:55:41;24.10;56.80
26579;DHT22;14227;47.674;19.320;2022-08-21T06:58:08;24.10;56.90
26579;DHT22;14227;47.674;19.320;2022-08-21T07:00:35;24.10;56.70
26579;DHT22;14227;47.674;19.320;2022-08-21T07:03:06;24.10;56.60
26579;DHT22;14227;47.674;19.320;2022-08-21T07:05:34;24.20;56.90
26579;DHT22;14227;47.674;19.320;2022-08-21T07:08:00;24.20;56.70
26579;DHT22;14227;47.674;19.320;2022-08-21T07:10:27;24.20;56.70
26579;DHT22;14227;47.674;19.320;2022-08-21T07:12:53;24.20;56.60
26579;DHT22;14227;47.674;19.320;2022-08-21T07:15:20;24.30;56.80
26579;DHT22;14227;47.674;19.320;2022-08-21T07:17:46;24.30;56.90
26579;DHT22;14227;47.674;19.320;2022-08-21T07:20:11;24.30;57.00
26579;DHT22;14227;47.674;19.320;2022-08-21T07:22:38;24.30;57.00
26579;DHT22;14227;47.674;19.320;2022-08-21T07:25:05;24.30;56.80
26579;DHT22;14227;47.674;19.320;2022-08-21T07:27:31;24.40;56.60
26579;DHT22;14227;47.674;19.320;2022-08-21T07:29:57;24.40;56.80
26579;DHT22;14227;47.674;19.320;2022-08-21T07:32:25;24.40;56.60
26579;DHT22;14227;47.674;19.320;2022-08-21T07:35:15;24.40;56.60
26579;DHT22;14227;47.674;19.320;2022-08-21T07:37:41;24.50;56.50
26579;DHT22;14227;47.674;19.320;2022-08-21T07:40:12;24.50;56.60
26579;DHT22;14227;47.674;19.320;2022-08-21T07:46:13;24.50;56.20
26579;DHT22;14227;47.674;19.320;2022-08-21T07:48:46;24.50;56.50
26579;DHT22;14227;47.674;19.320;2022-08-21T07:51:14;24.50;56.50
26579;DHT22;14227;47.674;19.320;2022-08-21T07:53:41;24.50;56.50
26579;DHT22;14227;47.674;19.320;2022-08-21T07:56:08;24.50;56.40
26579;DHT22;14227;47.674;19.320;2022-08-21T07:58:34;24.50;56.50
26579;DHT22;14227;47.674;19.320;2022-08-21T08:08:12;24.70;56.40
26579;DHT22;14227;47.674;19.320;2022-08-21T08:10:38;24.60;56.50
26579;DHT22;14227;47.674;19.320;2022-08-21T08:13:04;24.70;56.40
26579;DHT22;14227;47.674;19.320;2022-08-21T08:15:30;24.70;56.50
26579;DHT22;14227;47.674;19.320;2022-08-21T08:17:56;24.70;56.40
26579;DHT22;14227;47.674;19.320;2022-08-21T08:20:24;24.80;56.40
26579;DHT22;14227;47.674;19.320;2022-08-21T08:23:01;24.80;56.20
26579;DHT22;14227;47.674;19.320;2022-08-21T08:25:27;24.80;56.00
26579;DHT22;14227;47.674;19.320;2022-08-21T08:31:11;24.80;56.00
26579;DHT22;14227;47.674;19.320;2022-08-21T08:33:37;24.90;56.00
26579;DHT22;14227;47.674;19.320;2022-08-21T08:36:08;24.90;56.00
26579;DHT22;14227;47.674;19.320;2022-08-21T08:38:39;24.90;55.90
26579;DHT22;14227;47.674;19.320;2022-08-21T08:41:18;24.90;56.60
26579;DHT22;14227;47.674;19.320;2022-08-21T08:43:58;25.00;55.60
26579;DHT22;14227;47.674;19.320;2022-08-21T08:46:47;25.00;55.40
26579;DHT22;14227;47.674;19.320;2022-08-21T09:02:01;25.10;56.10
26579;DHT22;14227;47.674;19.320;2022-08-21T09:04:31;25.10;56.20
26579;DHT22;14227;47.674;19.320;2022-08-21T09:27:15;25.30;55.20
26579;DHT22;14227;47.674;19.320;2022-08-21T09:29:54;25.30;54.80
26579;DHT22;14227;47.674;19.320;2022-08-21T09:32:23;25.40;55.20
26579;DHT22;14227;47.674;19.320;2022-08-21T09:34:59;25.50;55.30
26579;DHT22;14227;47.674;19.320;2022-08-21T09:37:26;25.60;55.00
26579;DHT22;14227;47.674;19.320;2022-08-21T09:39:51;25.60;54.80
26579;DHT22;14227;47.674;19.320;2022-08-21T09:42:29;25.60;54.80
26579;DHT22;14227;47.674;19.320;2022-08-21T09:45:17;25.70;54.90
26579;DHT22;14227;47.674;19.320;2022-08-21T09:47:43;25.70;54.90
26579;DHT22;14227;47.674;19.320;2022-08-21T09:50:17;25.70;54.90
26579;DHT22;14227;47.674;19.320;2022-08-21T09:52:47;25.80;55.00
26579;DHT22;14227;47.674;19.320;2022-08-21T09:55:18;25.80;55.00
26579;DHT22;14227;47.674;19.320;2022-08-21T09:58:05;25.80;55.00
26579;DHT22;14227;47.674;19.320;2022-08-21T10:00:34;25.80;54.60
26579;DHT22;14227;47.674;19.320;2022-08-21T10:03:18;25.80;54.60
26579;DHT22;14227;47.674;19.320;2022-08-21T10:05:53;25.80;54.60
26579;DHT22;14227;47.674;19.320;2022-08-21T10:08:21;25.90;54.80
26579;DHT22;14227;47.674;19.320;2022-08-21T10:10:53;25.90;55.10
26579;DHT22;14227;47.674;19.320;2022-08-21T10:13:27;25.90;54.80
26579;DHT22;14227;47.674;19.320;2022-08-21T10:21:36;25.90;54.70
26579;DHT22;14227;47.674;19.320;2022-08-21T10:29:58;26.00;55.30
26579;DHT22;14227;47.674;19.320;2022-08-21T10:35:29;26.00;54.70
26579;DHT22;14227;47.674;19.320;2022-08-21T10:43:42;26.00;54.80
26579;DHT22;14227;47.674;19.320;2022-08-21T10:46:17;25.90;55.00
26579;DHT22;14227;47.674;19.320;2022-08-21T10:48:57;25.90;55.50
26579;DHT22;14227;47.674;19.320;2022-08-21T10:51:39;26.00;55.10
26579;DHT22;14227;47.674;19.320;2022-08-21T10:54:16;26.00;55.70
26579;DHT22;14227;47.674;19.320;2022-08-21T10:56:47;26.00;55.10
26579;DHT22;14227;47.674;19.320;2022-08-21T10:59:28;26.00;55.10
26579;DHT22;14227;47.674;19.320;2022-08-21T11:02:00;26.00;54.80
26579;DHT22;14227;47.674;19.320;2022-08-21T11:04:32;26.10;54.80
26579;DHT22;14227;47.674;19.320;2022-08-21T11:07:05;26.10;54.30
26579;DHT22;14227;47.674;19.320;2022-08-21T11:09:31;26.10;54.20
26579;DHT22;14227;47.674;19.320;2022-08-21T11:12:29;26.20;54.30
26579;DHT22;14227;47.674;19.320;2022-08-21T11:18:22;26.10;54.00
26579;DHT22;14227;47.674;19.320;2022-08-21T11:21:01;26.10;54.40
26579;DHT22;14227;47.674;19.320;2022-08-21T11:23:41;26.10;55.20
26579;DHT22;14227;47.674;19.320;2022-08-21T11:26:38;26.10;55.10
26579;DHT22;14227;47.674;19.320;2022-08-21T11:29:18;26.20;54.50
26579;DHT22;14227;47.674;19.320;2022-08-21T11:32:05;26.30;54.50
26579;DHT22;14227;47.674;19.320;2022-08-21T11:45:49;26.30;54.70
26579;DHT22;14227;47.674;19.320;2022-08-21T11:51:23;26.30;54.60
26579;DHT22;14227;47.674;19.320;2022-08-21T11:54:05;26.30;54.30
26579;DHT22;14227;47.674;19.320;2022-08-21T11:56:39;26.30;54.20
26579;DHT22;14227;47.674;19.320;2022-08-21T11:59:16;26.40;54.30
26579;DHT22;14227;47.674;19.320;2022-08-21T12:01:46;26.40;53.90
26579;DHT22;14227;47.674;19.320;2022-08-21T12:04:31;26.50;53.80
26579;DHT22;14227;47.674;19.320;2022-08-21T12:07:15;26.50;53.60
26579;DHT22;14227;47.674;19.320;2022-08-21T12:09:50;26.50;53.20
26579;DHT22;14227;47.674;19.320;2022-08-21T12:12:35;26.50;53.70
26579;DHT22;14227;47.674;19.320;2022-08-21T12:17:40;26.60;53.20
26579;DHT22;14227;47.674;19.320;2022-08-21T12:20:23;26.60;53.50
26579;DHT22;14227;47.674;19.320;2022-08-21T12:23:44;26.70;53.40
26579;DHT22;14227;47.674;19.320;2022-08-21T12:28:26;26.60;53.40
26579;DHT22;14227;47.674;19.320;2022-08-21T12:30:52;26.60;53.40
26579;DHT22;14227;47.674;19.320;2022-08-21T12:33:36;26.70;53.60
26579;DHT22;14227;47.674;19.320;2022-08-21T12:36:16;26.70;53.40
26579;DHT22;14227;47.674;19.320;2022-08-21T12:38:54;26.70;53.40
26579;DHT22;14227;47.674;19.320;2022-08-21T12:41:34;26.70;53.10
26579;DHT22;14227;47.674;19.320;2022-08-21T12:44:14;26.70;53.10
26579;DHT22;14227;47.674;19.320;2022-08-21T12:46:51;26.70;53.20
26579;DHT22;14227;47.674;19.320;2022-08-21T12:49:28;26.70;53.20
26579;DHT22;14227;47.674;19.320;2022-08-21T12:52:19;26.70;53.10
26579;DHT22;14227;47.674;19.320;2022-08-21T12:54:45;26.70;52.80
26579;DHT22;14227;47.674;19.320;2022-08-21T12:57:26;26.70;53.40
26579;DHT22;14227;47.674;19.320;2022-08-21T12:59:54;26.70;53.00
26579;DHT22;14227;47.674;19.320;2022-08-21T13:02:24;26.70;52.90
26579;DHT22;14227;47.674;19.320;2022-08-21T13:04:50;26.70;52.70
26579;DHT22;14227;47.674;19.320;2022-08-21T13:07:25;26.70;52.80
26579;DHT22;14227;47.674;19.320;2022-08-21T13:10:03;26.70;53.00
26579;DHT22;14227;47.674;19.320;2022-08-21T13:12:30;26.70;52.90
26579;DHT22;14227;47.674;19.320;2022-08-21T13:15:00;26.70;52.90
26579;DHT22;14227;47.674;19.320;2022-08-21T13:17:31;26.70;52.90
26579;DHT22;14227;47.674;19.320;2022-08-21T13:20:00;26.70;52.70
26579;DHT22;14227;47.674;19.320;2022-08-21T13:22:28;26.80;52.60
26579;DHT22;14227;47.674;19.320;2022-08-21T13:24:54;26.80;52.30
26579;DHT22;14227;47.674;19.320;2022-08-21T13:27:29;26.90;52.70
26579;DHT22;14227;47.674;19.320;2022-08-21T13:30:16;26.90;52.40
26579;DHT22;14227;47.674;19.320;2022-08-21T13:32:48;26.90;52.10
26579;DHT22;14227;47.674;19.320;2022-08-21T13:35:22;27.00;51.90
26579;DHT22;14227;47.674;19.320;2022-08-21T13:37:51;27.00;51.70
26579;DHT22;14227;47.674;19.320;2022-08-21T13:40:23;27.00;51.70
26579;DHT22;14227;47.674;19.320;2022-08-21T13:42:50;27.00;51.20
26579;DHT22;14227;47.674;19.320;2022-08-21T13:45:25;27.00;51.00
26579;DHT22;14227;47.674;19.320;2022-08-21T13:47:52;27.00;50.70
26579;DHT22;14227;47.674;19.320;2022-08-21T13:50:20;27.10;50.80
26579;DHT22;14227;47.674;19.320;2022-08-21T13:52:55;27.10;50.90
26579;DHT22;14227;47.674;19.320;2022-08-21T13:55:22;27.10;51.20
26579;DHT22;14227;47.674;19.320;2022-08-21T13:57:59;27.10;51.10
26579;DHT22;14227;47.674;19.320;2022-08-21T14:00:27;27.10;51.10
26579;DHT22;14227;47.674;19.320;2022-08-21T14:03:01;27.10;50.40
26579;DHT22;14227;47.674;19.320;2022-08-21T14:05:29;27.10;50.80
26579;DHT22;14227;47.674;19.320;2022-08-21T14:08:23;27.10;50.90
26579;DHT22;14227;47.674;19.320;2022-08-21T14:10:50;27.10;50.40
26579;DHT22;14227;47.674;19.320;2022-08-21T14:13:56;27.10;50.40
26579;DHT22;14227;47.674;19.320;2022-08-21T14:16:26;27.10;50.40
26579;DHT22;14227;47.674;19.320;2022-08-21T14:21:31;27.20;50.50
26579;DHT22;14227;47.674;19.320;2022-08-21T14:24:14;27.20;50.50
26579;DHT22;14227;47.674;19.320;2022-08-21T14:29:22;27.20;50.50
26579;DHT22;14227;47.674;19.320;2022-08-21T14:31:56;27.20;50.50
26579;DHT22;14227;47.674;19.320;2022-08-21T14:34:26;27.20;50.50
26579;DHT22;14227;47.674;19.320;2022-08-21T14:36:53;27.20;50.50
26579;DHT22;14227;47.674;19.320;2022-08-21T14:39:20;27.20;50.50
26579;DHT22;14227;47.674;19.320;2022-08-21T14:41:47;27.30;50.10
26579;DHT22;14227;47.674;19.320;2022-08-21T14:44:15;27.20;49.50
26579;DHT22;14227;47.674;19.320;2022-08-21T14:46:41;27.30;49.70
26579;DHT22;14227;47.674;19.320;2022-08-21T14:49:06;27.30;49.60
26579;DHT22;14227;47.674;19.320;2022-08-21T14:51:33;27.30;49.60
26579;DHT22;14227;47.674;19.320;2022-08-21T14:53:59;27.30;49.60
26579;DHT22;14227;47.674;19.320;2022-08-21T14:56:25;27.30;49.60
26579;DHT22;14227;47.674;19.320;2022-08-21T14:58:52;27.30;49.40
26579;DHT22;14227;47.674;19.320;2022-08-21T15:01:20;27.20;49.70
26579;DHT22;14227;47.674;19.320;2022-08-21T15:03:47;27.30;50.20
26579;DHT22;14227;47.674;19.320;2022-08-21T15:06:15;27.30;50.50
26579;DHT22;14227;47.674;19.320;2022-08-21T15:08:42;27.30;50.50
26579;DHT22;14227;47.674;19.320;2022-08-21T15:11:12;27.30;50.50
26579;DHT22;14227;47.674;19.320;2022-08-21T15:13:41;27.30;50.50
26579;DHT22;14227;47.674;19.320;2022-08-21T15:16:08;27.30;50.50
26579;DHT22;14227;47.674;19.320;2022-08-21T15:18:35;27.40;50.60
26579;DHT22;14227;47.674;19.320;2022-08-21T15:21:01;27.40;50.60
26579;DHT22;14227;47.674;19.320;2022-08-21T15:23:27;27.40;50.70
26579;DHT22;14227;47.674;19.320;2022-08-21T15:25:53;27.40;51.40
26579;DHT22;14227;47.674;19.320;2022-08-21T15:28:19;27.30;51.70
26579;DHT22;14227;47.674;19.320;2022-08-21T15:30:50;27.30;52.30
26579;DHT22;14227;47.674;19.320;2022-08-21T15:33:16;27.20;52.70
26579;DHT22;14227;47.674;19.320;2022-08-21T15:35:42;27.20;53.10
26579;DHT22;14227;47.674;19.320;2022-08-21T15:38:07;27.10;52.80
26579;DHT22;14227;47.674;19.320;2022-08-21T15:40:34;27.10;52.60
26579;DHT22;14227;47.674;19.320;2022-08-21T15:43:02;27.10;52.50
26579;DHT22;14227;47.674;19.320;2022-08-21T15:45:29;27.00;52.60
26579;DHT22;14227;47.674;19.320;2022-08-21T15:47:57;27.00;52.70
26579;DHT22;14227;47.674;19.320;2022-08-21T15:50:23;27.00;53.10
26579;DHT22;14227;47.674;19.320;2022-08-21T15:52:49;26.90;52.80
26579;DHT22;14227;47.674;19.320;2022-08-21T15:55:15;26.90;53.00
26579;DHT22;14227;47.674;19.320;2022-08-21T15:57:45;26.90;53.00
26579;DHT22;14227;47.674;19.320;2022-08-21T16:00:32;26.90;52.80
26579;DHT22;14227;47.674;19.320;2022-08-21T16:03:00;26.90;52.60
26579;DHT22;14227;47.674;19.320;2022-08-21T16:05:28;26.80;52.90
26579;DHT22;14227;47.674;19.320;2022-08-21T16:07:54;26.70;52.80
26579;DHT22;14227;47.674;19.320;2022-08-21T16:10:22;26.70;52.80
26579;DHT22;14227;47.674;19.320;2022-08-21T16:12:53;26.60;52.70
26579;DHT22;14227;47.674;19.320;2022-08-21T16:15:19;26.60;52.40
26579;DHT22;14227;47.674;19.320;2022-08-21T16:17:46;26.60;52.00
26579;DHT22;14227;47.674;19.320;2022-08-21T16:20:20;26.60;52.10
26579;DHT22;14227;47.674;19.320;2022-08-21T16:22:46;26.60;52.10
26579;DHT22;14227;47.674;19.320;2022-08-21T16:25:13;26.50;52.20
26579;DHT22;14227;47.674;19.320;2022-08-21T16:27:41;26.50;52.40
26579;DHT22;14227;47.674;19.320;2022-08-21T16:30:08;26.40;52.70
26579;DHT22;14227;47.674;19.320;2022-08-21T16:32:34;26.40;52.90
26579;DHT22;14227;47.674;19.320;2022-08-21T16:35:00;26.40;52.70
26579;DHT22;14227;47.674;19.320;2022-08-21T16:37:29;26.30;53.00
26579;DHT22;14227;47.674;19.320;2022-08-21T16:39:54;26.30;53.20
26579;DHT22;14227;47.674;19.320;2022-08-21T16:42:23;26.20;53.40
26579;DHT22;14227;47.674;19.320;2022-08-21T16:44:50;26.10;53.40
26579;DHT22;14227;47.674;19.320;2022-08-21T16:47:16;26.10;53.50
26579;DHT22;14227;47.674;19.320;2022-08-21T16:49:42;26.10;53.70
26579;DHT22;14227;47.674;19.320;2022-08-21T16:52:08;26.10;53.70
26579;DHT22;14227;47.674;19.320;2022-08-21T16:54:34;26.00;53.40
26579;DHT22;14227;47.674;19.320;2022-08-21T16:57:00;26.00;53.30
26579;DHT22;14227;47.674;19.320;2022-08-21T16:59:26;26.10;53.20
26579;DHT22;14227;47.674;19.320;2022-08-21T17:01:52;26.00;53.20
26579;DHT22;14227;47.674;19.320;2022-08-21T17:04:19;26.00;53.20
26579;DHT22;14227;47.674;19.320;2022-08-21T17:06:46;26.00;53.10
26579;DHT22;14227;47.674;19.320;2022-08-21T17:09:12;26.00;53.20
26579;DHT22;14227;47.674;19.320;2022-08-21T17:11:41;26.00;53.20
26579;DHT22;14227;47.674;19.320;2022-08-21T17:14:17;26.00;53.20
26579;DHT22;14227;47.674;19.320;2022-08-21T17:16:46;26.00;53.00
26579;DHT22;14227;47.674;19.320;2022-08-21T17:19:12;26.00;53.10
26579;DHT22;14227;47.674;19.320;2022-08-21T17:21:38;26.00;53.20
26579;DHT22;14227;47.674;19.320;2022-08-21T17:24:04;26.00;53.10
26579;DHT22;14227;47.674;19.320;2022-08-21T17:26:30;26.00;53.00
26579;DHT22;14227;47.674;19.320;2022-08-21T17:28:56;26.00;52.80
26579;DHT22;14227;47.674;19.320;2022-08-21T17:31:22;26.10;52.80
26579;DHT22;14227;47.674;19.320;2022-08-21T17:33:51;26.10;53.00
26579;DHT22;14227;47.674;19.320;2022-08-21T17:36:26;26.10;53.40
26579;DHT22;14227;47.674;19.320;2022-08-21T17:38:53;26.10;52.60
26579;DHT22;14227;47.674;19.320;2022-08-21T17:41:20;26.10;52.50
26579;DHT22;14227;47.674;19.320;2022-08-21T17:46:50;26.10;52.70
26579;DHT22;14227;47.674;19.320;2022-08-21T17:49:16;26.10;53.00
26579;DHT22;14227;47.674;19.320;2022-08-21T17:51:42;26.10;52.90
26579;DHT22;14227;47.674;19.320;2022-08-21T17:54:07;26.00;52.80
26579;DHT22;14227;47.674;19.320;2022-08-21T17:56:35;26.10;52.60
26579;DHT22;14227;47.674;19.320;2022-08-21T17:59:03;26.10;52.80
26579;DHT22;14227;47.674;19.320;2022-08-21T18:01:34;26.10;52.60
26579;DHT22;14227;47.674;19.320;2022-08-21T18:04:01;26.10;52.10
26579;DHT22;14227;47.674;19.320;2022-08-21T18:06:27;26.10;52.20
26579;DHT22;14227;47.674;19.320;2022-08-21T18:09:09;26.10;52.20
26579;DHT22;14227;47.674;19.320;2022-08-21T18:12:09;26.10;52.30
26579;DHT22;14227;47.674;19.320;2022-08-21T18:14:35;26.10;52.20
26579;DHT22;14227;47.674;19.320;2022-08-21T18:17:05;26.10;52.20
26579;DHT22;14227;47.674;19.320;2022-08-21T18:19:31;26.10;52.20
26579;DHT22;14227;47.674;19.320;2022-08-21T18:21:57;26.10;52.40
26579;DHT22;14227;47.674;19.320;2022-08-21T18:24:22;26.10;52.10
26579;DHT22;14227;47.674;19.320;2022-08-21T18:26:49;26.10;52.00
26579;DHT22;14227;47.674;19.320;2022-08-21T18:29:17;26.10;52.00
26579;DHT22;14227;47.674;19.320;2022-08-21T18:31:44;26.10;52.00
26579;DHT22;14227;47.674;19.320;2022-08-21T18:34:36;26.10;52.20
26579;DHT22;14227;47.674;19.320;2022-08-21T18:37:03;26.10;52.00
26579;DHT22;14227;47.674;19.320;2022-08-21T18:39:30;26.10;52.60
26579;DHT22;14227;47.674;19.320;2022-08-21T18:42:28;26.10;52.80
26579;DHT22;14227;47.674;19.320;2022-08-21T18:45:00;26.10;52.60
26579;DHT22;14227;47.674;19.320;2022-08-21T18:47:31;26.00;52.40
26579;DHT22;14227;47.674;19.320;2022-08-21T20:01:21;25.60;54.50
26579;DHT22;14227;47.674;19.320;2022-08-21T20:03:48;25.50;54.80
26579;DHT22;14227;47.674;19.320;2022-08-21T20:06:15;25.60;54.80
26579;DHT22;14227;47.674;19.320;2022-08-21T20:08:43;25.60;54.80
26579;DHT22;14227;47.674;19.320;2022-08-21T20:11:10;25.60;54.80
26579;DHT22;14227;47.674;19.320;2022-08-21T20:13:36;25.60;54.80
26579;DHT22;14227;47.674;19.320;2022-08-21T20:16:07;25.60;54.80
26579;DHT22;14227;47.674;19.320;2022-08-21T20:18:35;25.60;54.80
26579;DHT22;14227;47.674;19.320;2022-08-21T20:21:01;25.60;54.80
26579;DHT22;14227;47.674;19.320;2022-08-21T20:23:27;25.70;54.90
26579;DHT22;14227;47.674;19.320;2022-08-21T20:25:53;25.70;54.90
26579;DHT22;14227;47.674;19.320;2022-08-21T20:28:19;25.70;54.90
26579;DHT22;14227;47.674;19.320;2022-08-21T20:30:45;25.60;54.80
26579;DHT22;14227;47.674;19.320;2022-08-21T20:33:11;25.60;54.80
26579;DHT22;14227;47.674;19.320;2022-08-21T20:35:38;25.60;54.80
26579;DHT22;14227;47.674;19.320;2022-08-21T20:38:03;25.60;55.20
26579;DHT22;14227;47.674;19.320;2022-08-21T20:40:29;25.60;55.10
26579;DHT22;14227;47.674;19.320;2022-08-21T20:42:55;25.60;55.00
26579;DHT22;14227;47.674;19.320;2022-08-21T20:45:30;25.60;55.20
26579;DHT22;14227;47.674;19.320;2022-08-21T20:48:02;25.60;55.30
26579;DHT22;14227;47.674;19.320;2022-08-21T20:50:32;25.60;55.20
26579;DHT22;14227;47.674;19.320;2022-08-21T20:53:15;25.50;54.80
26579;DHT22;14227;47.674;19.320;2022-08-21T20:55:47;25.60;55.40
26579;DHT22;14227;47.674;19.320;2022-08-21T21:00:49;25.50;55.30
26579;DHT22;14227;47.674;19.320;2022-08-21T21:03:31;25.50;55.10
26579;DHT22;14227;47.674;19.320;2022-08-21T21:06:00;25.50;55.10
26579;DHT22;14227;47.674;19.320;2022-08-21T21:08:31;25.50;55.50
26579;DHT22;14227;47.674;19.320;2022-08-21T21:11:05;25.50;55.60
26579;DHT22;14227;47.674;19.320;2022-08-21T21:13:38;25.50;55.60
26579;DHT22;14227;47.674;19.320;2022-08-21T21:16:30;25.50;55.60
26579;DHT22;14227;47.674;19.320;2022-08-21T21:19:18;25.50;55.30
26579;DHT22;14227;47.674;19.320;2022-08-21T21:21:50;25.50;55.30
26579;DHT22;14227;47.674;19.320;2022-08-21T21:24:24;25.50;55.20
26579;DHT22;14227;47.674;19.320;2022-08-21T21:29:31;25.40;55.20
26579;DHT22;14227;47.674;19.320;2022-08-21T21:31:59;25.50;55.30
26579;DHT22;14227;47.674;19.320;2022-08-21T21:34:26;25.40;55.30
26579;DHT22;14227;47.674;19.320;2022-08-21T21:36:59;25.40;55.20
26579;DHT22;14227;47.674;19.320;2022-08-21T21:39:51;25.40;55.20
26579;DHT22;14227;47.674;19.320;2022-08-21T21:42:36;25.40;54.90
26579;DHT22;14227;47.674;19.320;2022-08-21T21:50:42;25.30;54.90
26579;DHT22;14227;47.674;19.320;2022-08-21T22:06:34;25.20;55.30
26579;DHT22;14227;47.674;19.320;2022-08-21T22:09:13;25.20;55.20
26579;DHT22;14227;47.674;19.320;2022-08-21T22:14:18;25.10;55.30
26579;DHT22;14227;47.674;19.320;2022-08-21T22:16:47;25.20;55.20
26579;DHT22;14227;47.674;19.320;2022-08-21T22:19:21;25.20;55.30
26579;DHT22;14227;47.674;19.320;2022-08-21T22:22:16;25.20;55.10
26579;DHT22;14227;47.674;19.320;2022-08-21T22:24:46;25.10;54.90
26579;DHT22;14227;47.674;19.320;2022-08-21T22:27:17;25.10;55.20
26579;DHT22;14227;47.674;19.320;2022-08-21T22:29:52;25.10;54.90
26579;DHT22;14227;47.674;19.320;2022-08-21T22:32:45;25.10;55.10
26579;DHT22;14227;47.674;19.320;2022-08-21T22:37:45;25.10;55.40
26579;DHT22;14227;47.674;19.320;2022-08-21T22:40:14;25.10;55.40
26579;DHT22;14227;47.674;19.320;2022-08-21T22:42:56;25.00;55.60
26579;DHT22;14227;47.674;19.320;2022-08-21T22:45:22;25.00;55.40
26579;DHT22;14227;47.674;19.320;2022-08-21T22:47:50;25.00;55.70
26579;DHT22;14227;47.674;19.320;2022-08-21T22:52:58;24.90;55.50
26579;DHT22;14227;47.674;19.320;2022-08-21T22:55:41;24.90;55.70
26579;DHT22;14227;47.674;19.320;2022-08-21T23:01:05;24.90;55.60
26579;DHT22;14227;47.674;19.320;2022-08-21T23:03:50;24.90;55.70
26579;DHT22;14227;47.674;19.320;2022-08-21T23:06:35;24.90;55.80
26579;DHT22;14227;47.674;19.320;2022-08-21T23:09:19;24.90;55.60
26579;DHT22;14227;47.674;19.320;2022-08-21T23:11:45;24.90;55.70
26579;DHT22;14227;47.674;19.320;2022-08-21T23:14:12;24.90;55.60
26579;DHT22;14227;47.674;19.320;2022-08-21T23:16:47;24.90;55.40
26579;DHT22;14227;47.674;19.320;2022-08-21T23:21:58;24.90;55.20
26579;DHT22;14227;47.674;19.320;2022-08-21T23:27:31;24.90;55.30
26579;DHT22;14227;47.674;19.320;2022-08-21T23:30:12;24.90;55.00
26579;DHT22;14227;47.674;19.320;2022-08-21T23:35:21;24.90;55.20
26579;DHT22;14227;47.674;19.320;2022-08-21T23:38:09;24.90;55.00
26579;DHT22;14227;47.674;19.320;2022-08-21T23:43:25;24.90;55.30
26579;DHT22;14227;47.674;19.320;2022-08-21T23:48:54;24.90;55.00
